sensor_id;sensor_type;location;lat;lon;timestamp;temperature;humidity
11426;DHT22;5769;47.998;7.788;2022-10-17T00:01:48;20.40;77.50
11426;DHT22;5769;47.998;7.788;2022-10-17T00:04:14;20.40;77.40
11426;DHT22;5769;47.998;7.788;2022-10-17T00:06:41;20.40;77.50
11426;DHT22;5769;47.998;7.788;2022-10-17T00:09:09;20.40;77.50
11426;DHT22;5769;47.998;7.788;2022-10-17T00:11:36;20.40;77.40
11426;DHT22;5769;47.998;7.788;2022-10-17T00:14:03;20.40;77.60
11426;DHT22;5769;47.998;7.788;2022-10-17T00:16:31;20.40;77.70
11426;DHT22;5769;47.998;7.788;2022-10-17T00:18:59;20.40;77.80
11426;DHT22;5769;47.998;7.788;2022-10-17T00:21:25;20.40;77.70
11426;DHT22;5769;47.998;7.788;2022-10-17T00:23:53;20.40;78.00
11426;DHT22;5769;47.998;7.788;2022-10-17T00:26:22;20.40;77.80
11426;DHT22;5769;47.998;7.788;2022-10-17T00:28:50;20.40;77.80
11426;DHT22;5769;47.998;7.788;2022-10-17T00:31:19;20.40;77.90
11426;DHT22;5769;47.998;7.788;2022-10-17T00:33:46;20.40;78.00
11426;DHT22;5769;47.998;7.788;2022-10-17T00:36:15;20.40;78.00
11426;DHT22;5769;47.998;7.788;2022-10-17T00:38:43;20.40;77.80
11426;DHT22;5769;47.998;7.788;2022-10-17T00:41:12;20.40;77.80
11426;DHT22;5769;47.998;7.788;2022-10-17T00:43:51;20.30;77.70
11426;DHT22;5769;47.998;7.788;2022-10-17T00:46:19;20.40;77.70
11426;DHT22;5769;47.998;7.788;2022-10-17T00:48:47;20.30;77.50
11426;DHT22;5769;47.998;7.788;2022-10-17T00:51:15;20.30;77.50
11426;DHT22;5769;47.998;7.788;2022-10-17T00:53:44;20.30;77.70
11426;DHT22;5769;47.998;7.788;2022-10-17T00:56:11;20.30;77.80
11426;DHT22;5769;47.998;7.788;2022-10-17T00:58:38;20.30;77.40
11426;DHT22;5769;47.998;7.788;2022-10-17T01:01:06;20.30;77.50
11426;DHT22;5769;47.998;7.788;2022-10-17T01:03:33;20.30;77.50
11426;DHT22;5769;47.998;7.788;2022-10-17T01:06:00;20.30;77.70
11426;DHT22;5769;47.998;7.788;2022-10-17T01:08:26;20.30;77.30
11426;DHT22;5769;47.998;7.788;2022-10-17T01:10:58;20.30;77.60
11426;DHT22;5769;47.998;7.788;2022-10-17T01:13:30;20.30;77.70
11426;DHT22;5769;47.998;7.788;2022-10-17T01:16:09;20.30;77.40
11426;DHT22;5769;47.998;7.788;2022-10-17T01:18:50;20.30;77.70
11426;DHT22;5769;47.998;7.788;2022-10-17T01:21:31;20.30;77.80
11426;DHT22;5769;47.998;7.788;2022-10-17T01:24:20;20.30;77.90
11426;DHT22;5769;47.998;7.788;2022-10-17T01:29:59;20.30;78.00
11426;DHT22;5769;47.998;7.788;2022-10-17T01:32:34;20.30;78.00
11426;DHT22;5769;47.998;7.788;2022-10-17T01:35:08;20.30;78.00
11426;DHT22;5769;47.998;7.788;2022-10-17T01:37:41;20.30;78.00
11426;DHT22;5769;47.998;7.788;2022-10-17T01:40:12;20.30;78.00
11426;DHT22;5769;47.998;7.788;2022-10-17T01:42:44;20.30;78.00
11426;DHT22;5769;47.998;7.788;2022-10-17T01:45:16;20.30;78.10
11426;DHT22;5769;47.998;7.788;2022-10-17T01:47:51;20.30;78.90
11426;DHT22;5769;47.998;7.788;2022-10-17T01:50:22;20.30;78.00
11426;DHT22;5769;47.998;7.788;2022-10-17T01:52:52;20.30;78.00
11426;DHT22;5769;47.998;7.788;2022-10-17T01:55:21;20.30;77.90
11426;DHT22;5769;47.998;7.788;2022-10-17T01:57:54;20.30;78.00
11426;DHT22;5769;47.998;7.788;2022-10-17T02:00:24;20.30;78.00
11426;DHT22;5769;47.998;7.788;2022-10-17T02:02:55;20.30;78.00
11426;DHT22;5769;47.998;7.788;2022-10-17T02:05:27;20.30;78.00
11426;DHT22;5769;47.998;7.788;2022-10-17T02:07:54;20.30;78.00
11426;DHT22;5769;47.998;7.788;2022-10-17T02:10:28;20.30;78.00
11426;DHT22;5769;47.998;7.788;2022-10-17T02:12:58;20.30;78.00
11426;DHT22;5769;47.998;7.788;2022-10-17T02:15:55;20.30;78.00
11426;DHT22;5769;47.998;7.788;2022-10-17T02:18:40;20.30;78.00
11426;DHT22;5769;47.998;7.788;2022-10-17T02:21:16;20.30;77.90
11426;DHT22;5769;47.998;7.788;2022-10-17T02:23:51;20.30;77.90
11426;DHT22;5769;47.998;7.788;2022-10-17T02:26:23;20.30;77.90
11426;DHT22;5769;47.998;7.788;2022-10-17T02:29:01;20.30;77.90
11426;DHT22;5769;47.998;7.788;2022-10-17T02:31:33;20.30;77.90
11426;DHT22;5769;47.998;7.788;2022-10-17T02:34:05;20.20;77.80
11426;DHT22;5769;47.998;7.788;2022-10-17T02:36:39;20.30;77.90
11426;DHT22;5769;47.998;7.788;2022-10-17T02:39:08;20.30;77.80
11426;DHT22;5769;47.998;7.788;2022-10-17T02:41:37;20.30;77.80
11426;DHT22;5769;47.998;7.788;2022-10-17T02:44:06;20.20;77.80
11426;DHT22;5769;47.998;7.788;2022-10-17T02:46:34;20.30;77.80
11426;DHT22;5769;47.998;7.788;2022-10-17T02:49:07;20.30;77.80
11426;DHT22;5769;47.998;7.788;2022-10-17T02:51:42;20.30;77.80
11426;DHT22;5769;47.998;7.788;2022-10-17T02:54:15;20.30;77.80
11426;DHT22;5769;47.998;7.788;2022-10-17T02:56:47;20.30;77.80
11426;DHT22;5769;47.998;7.788;2022-10-17T02:59:17;20.30;77.80
11426;DHT22;5769;47.998;7.788;2022-10-17T03:01:45;20.30;77.80
11426;DHT22;5769;47.998;7.788;2022-10-17T03:04:14;20.30;77.80
11426;DHT22;5769;47.998;7.788;2022-10-17T03:06:41;20.20;77.70
11426;DHT22;5769;47.998;7.788;2022-10-17T03:09:08;20.20;77.70
11426;DHT22;5769;47.998;7.788;2022-10-17T03:11:34;20.20;77.70
11426;DHT22;5769;47.998;7.788;2022-10-17T03:14:01;20.30;77.70
11426;DHT22;5769;47.998;7.788;2022-10-17T03:16:28;20.30;77.80
11426;DHT22;5769;47.998;7.788;2022-10-17T03:18:55;20.20;77.60
11426;DHT22;5769;47.998;7.788;2022-10-17T03:21:23;20.30;77.70
11426;DHT22;5769;47.998;7.788;2022-10-17T03:23:50;20.30;77.70
11426;DHT22;5769;47.998;7.788;2022-10-17T03:26:16;20.20;78.30
11426;DHT22;5769;47.998;7.788;2022-10-17T03:28:43;20.30;77.70
11426;DHT22;5769;47.998;7.788;2022-10-17T03:31:14;20.30;77.70
11426;DHT22;5769;47.998;7.788;2022-10-17T03:33:41;20.20;77.60
11426;DHT22;5769;47.998;7.788;2022-10-17T03:36:11;20.30;77.60
11426;DHT22;5769;47.998;7.788;2022-10-17T03:38:40;20.30;77.60
11426;DHT22;5769;47.998;7.788;2022-10-17T03:41:07;20.30;77.60
11426;DHT22;5769;47.998;7.788;2022-10-17T03:43:34;20.20;77.50
11426;DHT22;5769;47.998;7.788;2022-10-17T03:46:01;20.30;77.60
11426;DHT22;5769;47.998;7.788;2022-10-17T03:48:29;20.30;77.60
11426;DHT22;5769;47.998;7.788;2022-10-17T03:50:59;20.30;77.60
11426;DHT22;5769;47.998;7.788;2022-10-17T03:53:27;20.20;77.50
11426;DHT22;5769;47.998;7.788;2022-10-17T03:55:56;20.30;77.60
11426;DHT22;5769;47.998;7.788;2022-10-17T03:58:23;20.30;77.60
11426;DHT22;5769;47.998;7.788;2022-10-17T04:00:49;20.30;77.50
11426;DHT22;5769;47.998;7.788;2022-10-17T04:03:16;20.20;77.50
11426;DHT22;5769;47.998;7.788;2022-10-17T04:05:43;20.20;77.50
11426;DHT22;5769;47.998;7.788;2022-10-17T04:08:10;20.20;77.50
11426;DHT22;5769;47.998;7.788;2022-10-17T04:10:36;20.20;77.50
11426;DHT22;5769;47.998;7.788;2022-10-17T04:13:04;20.20;77.50
11426;DHT22;5769;47.998;7.788;2022-10-17T04:15:31;20.20;77.50
11426;DHT22;5769;47.998;7.788;2022-10-17T04:17:58;20.20;77.50
11426;DHT22;5769;47.998;7.788;2022-10-17T04:20:25;20.20;77.50
11426;DHT22;5769;47.998;7.788;2022-10-17T04:22:52;20.20;77.50
11426;DHT22;5769;47.998;7.788;2022-10-17T04:25:18;20.20;77.50
11426;DHT22;5769;47.998;7.788;2022-10-17T04:27:45;20.20;77.50
11426;DHT22;5769;47.998;7.788;2022-10-17T04:30:15;20.20;77.50
11426;DHT22;5769;47.998;7.788;2022-10-17T04:32:41;20.20;77.40
11426;DHT22;5769;47.998;7.788;2022-10-17T04:35:08;20.20;77.50
11426;DHT22;5769;47.998;7.788;2022-10-17T04:37:35;20.20;77.50
11426;DHT22;5769;47.998;7.788;2022-10-17T04:40:02;20.20;77.50
11426;DHT22;5769;47.998;7.788;2022-10-17T04:42:28;20.20;77.50
11426;DHT22;5769;47.998;7.788;2022-10-17T04:44:55;20.20;77.50
11426;DHT22;5769;47.998;7.788;2022-10-17T04:47:23;20.20;77.40
11426;DHT22;5769;47.998;7.788;2022-10-17T04:49:50;20.20;77.40
11426;DHT22;5769;47.998;7.788;2022-10-17T04:52:16;20.20;77.50
11426;DHT22;5769;47.998;7.788;2022-10-17T04:54:43;20.20;77.50
11426;DHT22;5769;47.998;7.788;2022-10-17T04:57:10;20.20;77.40
11426;DHT22;5769;47.998;7.788;2022-10-17T04:59:36;20.20;77.40
11426;DHT22;5769;47.998;7.788;2022-10-17T05:02:03;20.20;77.40
11426;DHT22;5769;47.998;7.788;2022-10-17T05:04:31;20.20;77.40
11426;DHT22;5769;47.998;7.788;2022-10-17T05:06:58;20.20;77.40
11426;DHT22;5769;47.998;7.788;2022-10-17T05:09:25;20.20;77.40
11426;DHT22;5769;47.998;7.788;2022-10-17T05:11:52;20.20;77.40
11426;DHT22;5769;47.998;7.788;2022-10-17T05:14:19;20.20;77.30
11426;DHT22;5769;47.998;7.788;2022-10-17T05:16:45;20.20;77.30
11426;DHT22;5769;47.998;7.788;2022-10-17T05:19:12;20.20;77.20
11426;DHT22;5769;47.998;7.788;2022-10-17T05:21:40;20.20;77.10
11426;DHT22;5769;47.998;7.788;2022-10-17T05:24:08;20.20;77.00
11426;DHT22;5769;47.998;7.788;2022-10-17T05:26:36;20.20;76.90
11426;DHT22;5769;47.998;7.788;2022-10-17T05:29:06;20.20;76.90
11426;DHT22;5769;47.998;7.788;2022-10-17T05:31:33;20.20;76.80
11426;DHT22;5769;47.998;7.788;2022-10-17T05:34:00;20.20;76.70
11426;DHT22;5769;47.998;7.788;2022-10-17T05:36:28;20.20;76.60
11426;DHT22;5769;47.998;7.788;2022-10-17T05:38:56;20.20;76.60
11426;DHT22;5769;47.998;7.788;2022-10-17T05:41:24;20.20;76.40
11426;DHT22;5769;47.998;7.788;2022-10-17T05:43:51;20.20;76.40
11426;DHT22;5769;47.998;7.788;2022-10-17T05:46:18;20.20;76.30
11426;DHT22;5769;47.998;7.788;2022-10-17T05:48:44;20.20;76.30
11426;DHT22;5769;47.998;7.788;2022-10-17T05:51:13;20.20;76.20
11426;DHT22;5769;47.998;7.788;2022-10-17T05:53:40;20.20;76.10
11426;DHT22;5769;47.998;7.788;2022-10-17T05:56:10;20.20;76.10
11426;DHT22;5769;47.998;7.788;2022-10-17T05:58:39;20.20;76.00
11426;DHT22;5769;47.998;7.788;2022-10-17T06:01:11;20.20;75.90
11426;DHT22;5769;47.998;7.788;2022-10-17T06:03:39;20.20;75.90
11426;DHT22;5769;47.998;7.788;2022-10-17T06:06:07;20.20;76.00
11426;DHT22;5769;47.998;7.788;2022-10-17T06:08:35;20.20;75.80
11426;DHT22;5769;47.998;7.788;2022-10-17T06:11:02;20.20;76.10
11426;DHT22;5769;47.998;7.788;2022-10-17T06:13:30;20.20;76.20
11426;DHT22;5769;47.998;7.788;2022-10-17T06:16:00;20.20;76.10
11426;DHT22;5769;47.998;7.788;2022-10-17T06:18:28;20.20;76.30
11426;DHT22;5769;47.998;7.788;2022-10-17T06:21:01;20.20;76.30
11426;DHT22;5769;47.998;7.788;2022-10-17T06:23:29;20.20;76.30
11426;DHT22;5769;47.998;7.788;2022-10-17T06:25:58;20.20;76.10
11426;DHT22;5769;47.998;7.788;2022-10-17T06:28:25;20.20;76.10
11426;DHT22;5769;47.998;7.788;2022-10-17T06:30:53;20.20;76.10
11426;DHT22;5769;47.998;7.788;2022-10-17T06:33:20;20.20;76.10
11426;DHT22;5769;47.998;7.788;2022-10-17T06:35:50;20.20;76.10
11426;DHT22;5769;47.998;7.788;2022-10-17T06:38:17;20.20;76.10
11426;DHT22;5769;47.998;7.788;2022-10-17T06:40:44;20.20;76.10
11426;DHT22;5769;47.998;7.788;2022-10-17T06:43:11;20.20;76.10
11426;DHT22;5769;47.998;7.788;2022-10-17T06:45:38;20.20;76.10
11426;DHT22;5769;47.998;7.788;2022-10-17T06:48:07;20.20;76.10
11426;DHT22;5769;47.998;7.788;2022-10-17T06:50:34;20.20;76.20
11426;DHT22;5769;47.998;7.788;2022-10-17T06:53:01;20.20;76.10
11426;DHT22;5769;47.998;7.788;2022-10-17T06:55:27;20.20;76.20
11426;DHT22;5769;47.998;7.788;2022-10-17T06:57:54;20.20;76.10
11426;DHT22;5769;47.998;7.788;2022-10-17T07:00:21;20.20;76.20
11426;DHT22;5769;47.998;7.788;2022-10-17T07:02:48;20.20;76.20
11426;DHT22;5769;47.998;7.788;2022-10-17T07:05:16;20.20;76.20
11426;DHT22;5769;47.998;7.788;2022-10-17T07:07:43;20.20;76.20
11426;DHT22;5769;47.998;7.788;2022-10-17T07:10:10;20.20;76.20
11426;DHT22;5769;47.998;7.788;2022-10-17T07:12:37;20.20;76.20
11426;DHT22;5769;47.998;7.788;2022-10-17T07:15:04;20.20;76.20
11426;DHT22;5769;47.998;7.788;2022-10-17T07:17:31;20.20;76.20
11426;DHT22;5769;47.998;7.788;2022-10-17T07:19:58;20.20;76.20
11426;DHT22;5769;47.998;7.788;2022-10-17T07:22:26;20.20;76.20
11426;DHT22;5769;47.998;7.788;2022-10-17T07:24:53;20.20;76.10
11426;DHT22;5769;47.998;7.788;2022-10-17T07:27:19;20.20;75.90
11426;DHT22;5769;47.998;7.788;2022-10-17T07:29:46;20.20;75.80
11426;DHT22;5769;47.998;7.788;2022-10-17T07:32:13;20.10;75.50
11426;DHT22;5769;47.998;7.788;2022-10-17T07:34:40;20.10;75.20
11426;DHT22;5769;47.998;7.788;2022-10-17T07:37:06;20.10;75.10
11426;DHT22;5769;47.998;7.788;2022-10-17T07:39:35;20.10;75.30
11426;DHT22;5769;47.998;7.788;2022-10-17T07:42:04;20.10;75.20
11426;DHT22;5769;47.998;7.788;2022-10-17T07:44:31;20.10;75.20
11426;DHT22;5769;47.998;7.788;2022-10-17T07:47:00;20.10;75.20
11426;DHT22;5769;47.998;7.788;2022-10-17T07:49:26;20.10;75.30
11426;DHT22;5769;47.998;7.788;2022-10-17T07:51:53;20.10;75.50
11426;DHT22;5769;47.998;7.788;2022-10-17T07:54:20;20.10;75.60
11426;DHT22;5769;47.998;7.788;2022-10-17T07:56:48;20.10;75.80
11426;DHT22;5769;47.998;7.788;2022-10-17T07:59:16;20.10;75.90
11426;DHT22;5769;47.998;7.788;2022-10-17T08:01:43;20.10;75.90
11426;DHT22;5769;47.998;7.788;2022-10-17T08:04:09;20.20;75.70
11426;DHT22;5769;47.998;7.788;2022-10-17T08:06:36;20.20;76.00
11426;DHT22;5769;47.998;7.788;2022-10-17T08:09:03;20.20;76.10
11426;DHT22;5769;47.998;7.788;2022-10-17T08:11:30;20.20;76.40
11426;DHT22;5769;47.998;7.788;2022-10-17T08:13:58;20.30;76.60
11426;DHT22;5769;47.998;7.788;2022-10-17T08:16:25;20.30;76.50
11426;DHT22;5769;47.998;7.788;2022-10-17T08:18:51;20.30;76.30
11426;DHT22;5769;47.998;7.788;2022-10-17T08:21:18;20.20;76.10
11426;DHT22;5769;47.998;7.788;2022-10-17T08:23:45;20.20;76.00
11426;DHT22;5769;47.998;7.788;2022-10-17T08:26:12;20.20;76.00
11426;DHT22;5769;47.998;7.788;2022-10-17T08:28:42;20.20;76.00
11426;DHT22;5769;47.998;7.788;2022-10-17T08:31:12;20.20;76.10
11426;DHT22;5769;47.998;7.788;2022-10-17T08:33:39;20.20;76.20
11426;DHT22;5769;47.998;7.788;2022-10-17T08:36:07;20.20;76.20
11426;DHT22;5769;47.998;7.788;2022-10-17T08:38:35;20.20;76.30
11426;DHT22;5769;47.998;7.788;2022-10-17T08:41:10;20.20;76.20
11426;DHT22;5769;47.998;7.788;2022-10-17T08:43:50;20.20;76.30
11426;DHT22;5769;47.998;7.788;2022-10-17T08:46:28;20.20;76.40
11426;DHT22;5769;47.998;7.788;2022-10-17T08:48:58;20.20;76.30
11426;DHT22;5769;47.998;7.788;2022-10-17T08:51:28;20.20;76.40
11426;DHT22;5769;47.998;7.788;2022-10-17T08:54:02;20.20;76.60
11426;DHT22;5769;47.998;7.788;2022-10-17T08:56:34;20.30;76.90
11426;DHT22;5769;47.998;7.788;2022-10-17T08:59:10;20.30;76.70
11426;DHT22;5769;47.998;7.788;2022-10-17T09:01:49;20.30;76.90
11426;DHT22;5769;47.998;7.788;2022-10-17T09:04:37;20.40;76.80
11426;DHT22;5769;47.998;7.788;2022-10-17T09:07:12;20.40;76.90
11426;DHT22;5769;47.998;7.788;2022-10-17T09:10:01;20.40;77.00
11426;DHT22;5769;47.998;7.788;2022-10-17T09:12:35;20.40;77.10
11426;DHT22;5769;47.998;7.788;2022-10-17T09:15:19;20.40;77.10
11426;DHT22;5769;47.998;7.788;2022-10-17T09:17:55;20.40;77.10
11426;DHT22;5769;47.998;7.788;2022-10-17T09:20:25;20.50;77.20
11426;DHT22;5769;47.998;7.788;2022-10-17T09:22:57;20.40;77.20
11426;DHT22;5769;47.998;7.788;2022-10-17T09:25:25;20.50;77.30
11426;DHT22;5769;47.998;7.788;2022-10-17T09:27:57;20.50;77.20
11426;DHT22;5769;47.998;7.788;2022-10-17T09:30:30;20.50;77.10
11426;DHT22;5769;47.998;7.788;2022-10-17T09:33:08;20.50;76.90
11426;DHT22;5769;47.998;7.788;2022-10-17T09:35:45;20.50;76.70
11426;DHT22;5769;47.998;7.788;2022-10-17T09:38:17;20.50;76.80
11426;DHT22;5769;47.998;7.788;2022-10-17T09:40:50;20.50;76.90
11426;DHT22;5769;47.998;7.788;2022-10-17T09:43:25;20.50;77.20
11426;DHT22;5769;47.998;7.788;2022-10-17T09:46:11;20.60;77.30
11426;DHT22;5769;47.998;7.788;2022-10-17T09:48:56;20.60;77.10
11426;DHT22;5769;47.998;7.788;2022-10-17T09:51:43;20.70;77.10
11426;DHT22;5769;47.998;7.788;2022-10-17T09:54:25;20.70;77.00
11426;DHT22;5769;47.998;7.788;2022-10-17T09:57:01;20.70;77.00
11426;DHT22;5769;47.998;7.788;2022-10-17T09:59:34;20.70;77.10
11426;DHT22;5769;47.998;7.788;2022-10-17T10:02:26;20.70;77.10
11426;DHT22;5769;47.998;7.788;2022-10-17T10:05:14;20.70;77.90
11426;DHT22;5769;47.998;7.788;2022-10-17T10:08:14;20.70;77.20
11426;DHT22;5769;47.998;7.788;2022-10-17T10:10:59;20.70;77.20
11426;DHT22;5769;47.998;7.788;2022-10-17T10:13:36;20.70;77.20
11426;DHT22;5769;47.998;7.788;2022-10-17T10:16:24;20.70;77.30
11426;DHT22;5769;47.998;7.788;2022-10-17T10:19:48;20.70;77.10
11426;DHT22;5769;47.998;7.788;2022-10-17T10:23:02;20.70;76.90
11426;DHT22;5769;47.998;7.788;2022-10-17T10:25:55;20.70;76.60
11426;DHT22;5769;47.998;7.788;2022-10-17T10:28:36;20.70;76.70
11426;DHT22;5769;47.998;7.788;2022-10-17T10:31:06;20.70;76.80
11426;DHT22;5769;47.998;7.788;2022-10-17T10:33:49;20.70;76.90
11426;DHT22;5769;47.998;7.788;2022-10-17T10:36:24;20.70;76.90
11426;DHT22;5769;47.998;7.788;2022-10-17T10:42:36;20.70;76.90
11426;DHT22;5769;47.998;7.788;2022-10-17T10:45:19;20.70;77.00
11426;DHT22;5769;47.998;7.788;2022-10-17T10:48:13;20.70;77.10
11426;DHT22;5769;47.998;7.788;2022-10-17T10:51:02;20.70;77.10
11426;DHT22;5769;47.998;7.788;2022-10-17T10:56:40;20.70;77.00
11426;DHT22;5769;47.998;7.788;2022-10-17T10:59:28;20.70;77.10
11426;DHT22;5769;47.998;7.788;2022-10-17T11:02:08;20.70;77.00
11426;DHT22;5769;47.998;7.788;2022-10-17T11:04:46;20.80;77.10
11426;DHT22;5769;47.998;7.788;2022-10-17T11:07:45;20.80;77.20
11426;DHT22;5769;47.998;7.788;2022-10-17T11:10:24;20.80;77.10
11426;DHT22;5769;47.998;7.788;2022-10-17T11:13:22;20.70;77.00
11426;DHT22;5769;47.998;7.788;2022-10-17T11:16:22;20.80;77.00
11426;DHT22;5769;47.998;7.788;2022-10-17T11:18:54;20.80;77.00
11426;DHT22;5769;47.998;7.788;2022-10-17T11:21:43;20.80;76.80
11426;DHT22;5769;47.998;7.788;2022-10-17T11:24:32;20.80;76.60
11426;DHT22;5769;47.998;7.788;2022-10-17T11:27:08;20.80;77.00
11426;DHT22;5769;47.998;7.788;2022-10-17T11:29:50;20.80;76.80
11426;DHT22;5769;47.998;7.788;2022-10-17T11:33:11;20.80;76.90
11426;DHT22;5769;47.998;7.788;2022-10-17T11:35:50;20.80;77.10
11426;DHT22;5769;47.998;7.788;2022-10-17T11:38:35;20.80;77.00
11426;DHT22;5769;47.998;7.788;2022-10-17T11:41:26;20.80;77.00
11426;DHT22;5769;47.998;7.788;2022-10-17T11:44:10;20.80;77.10
11426;DHT22;5769;47.998;7.788;2022-10-17T11:46:50;20.80;77.00
11426;DHT22;5769;47.998;7.788;2022-10-17T11:49:48;20.90;77.10
11426;DHT22;5769;47.998;7.788;2022-10-17T11:52:42;20.90;77.10
11426;DHT22;5769;47.998;7.788;2022-10-17T11:55:34;20.80;77.00
11426;DHT22;5769;47.998;7.788;2022-10-17T11:58:34;20.90;77.00
11426;DHT22;5769;47.998;7.788;2022-10-17T12:01:24;20.80;76.90
11426;DHT22;5769;47.998;7.788;2022-10-17T12:04:36;20.90;76.80
11426;DHT22;5769;47.998;7.788;2022-10-17T12:07:36;20.90;76.80
11426;DHT22;5769;47.998;7.788;2022-10-17T12:10:27;20.90;76.30
11426;DHT22;5769;47.998;7.788;2022-10-17T12:16:45;20.80;76.00
11426;DHT22;5769;47.998;7.788;2022-10-17T12:19:34;20.90;75.90
11426;DHT22;5769;47.998;7.788;2022-10-17T12:22:34;20.90;75.80
11426;DHT22;5769;47.998;7.788;2022-10-17T12:25:17;20.90;75.80
11426;DHT22;5769;47.998;7.788;2022-10-17T12:28:08;20.80;75.90
11426;DHT22;5769;47.998;7.788;2022-10-17T12:33:54;20.90;75.90
11426;DHT22;5769;47.998;7.788;2022-10-17T12:36:44;20.80;75.70
11426;DHT22;5769;47.998;7.788;2022-10-17T12:39:53;20.80;75.70
11426;DHT22;5769;47.998;7.788;2022-10-17T12:42:45;20.80;76.00
11426;DHT22;5769;47.998;7.788;2022-10-17T12:46:02;20.80;75.90
11426;DHT22;5769;47.998;7.788;2022-10-17T12:49:18;20.90;76.00
11426;DHT22;5769;47.998;7.788;2022-10-17T12:52:21;20.90;76.10
11426;DHT22;5769;47.998;7.788;2022-10-17T12:55:10;20.90;76.10
11426;DHT22;5769;47.998;7.788;2022-10-17T12:58:01;20.90;76.00
11426;DHT22;5769;47.998;7.788;2022-10-17T13:00:53;20.90;76.10
11426;DHT22;5769;47.998;7.788;2022-10-17T13:03:29;20.90;76.20
11426;DHT22;5769;47.998;7.788;2022-10-17T13:06:21;20.90;76.60
11426;DHT22;5769;47.998;7.788;2022-10-17T13:09:14;20.90;76.60
11426;DHT22;5769;47.998;7.788;2022-10-17T13:14:54;20.90;76.40
11426;DHT22;5769;47.998;7.788;2022-10-17T13:17:35;20.90;76.50
11426;DHT22;5769;47.998;7.788;2022-10-17T13:20:18;20.90;76.60
11426;DHT22;5769;47.998;7.788;2022-10-17T13:22:52;20.90;76.30
11426;DHT22;5769;47.998;7.788;2022-10-17T13:25:37;20.90;76.50
11426;DHT22;5769;47.998;7.788;2022-10-17T13:28:15;20.90;76.50
11426;DHT22;5769;47.998;7.788;2022-10-17T13:31:23;20.90;76.40
11426;DHT22;5769;47.998;7.788;2022-10-17T13:34:14;20.90;76.40
11426;DHT22;5769;47.998;7.788;2022-10-17T13:36:59;20.90;76.50
11426;DHT22;5769;47.998;7.788;2022-10-17T13:39:38;20.90;76.40
11426;DHT22;5769;47.998;7.788;2022-10-17T13:42:26;20.90;76.60
11426;DHT22;5769;47.998;7.788;2022-10-17T13:45:02;21.00;76.80
11426;DHT22;5769;47.998;7.788;2022-10-17T13:47:54;21.00;76.80
11426;DHT22;5769;47.998;7.788;2022-10-17T13:50:42;21.00;76.70
11426;DHT22;5769;47.998;7.788;2022-10-17T13:53:44;21.00;76.80
11426;DHT22;5769;47.998;7.788;2022-10-17T13:56:25;21.00;76.50
11426;DHT22;5769;47.998;7.788;2022-10-17T13:59:24;21.00;76.30
11426;DHT22;5769;47.998;7.788;2022-10-17T14:02:13;21.00;75.70
11426;DHT22;5769;47.998;7.788;2022-10-17T14:05:09;21.00;76.20
11426;DHT22;5769;47.998;7.788;2022-10-17T14:07:52;21.00;76.20
11426;DHT22;5769;47.998;7.788;2022-10-17T14:10:35;21.00;76.10
11426;DHT22;5769;47.998;7.788;2022-10-17T14:13:22;21.00;76.30
11426;DHT22;5769;47.998;7.788;2022-10-17T14:15:50;21.00;75.90
11426;DHT22;5769;47.998;7.788;2022-10-17T14:18:25;21.00;76.20
11426;DHT22;5769;47.998;7.788;2022-10-17T14:21:06;21.00;76.20
11426;DHT22;5769;47.998;7.788;2022-10-17T14:23:39;21.00;76.50
11426;DHT22;5769;47.998;7.788;2022-10-17T14:26:11;21.00;76.40
11426;DHT22;5769;47.998;7.788;2022-10-17T14:28:43;21.00;76.50
11426;DHT22;5769;47.998;7.788;2022-10-17T14:31:30;21.00;76.60
11426;DHT22;5769;47.998;7.788;2022-10-17T14:34:01;21.00;76.60
11426;DHT22;5769;47.998;7.788;2022-10-17T14:36:44;21.00;76.50
11426;DHT22;5769;47.998;7.788;2022-10-17T14:39:27;21.00;77.10
11426;DHT22;5769;47.998;7.788;2022-10-17T14:41:59;21.00;76.00
11426;DHT22;5769;47.998;7.788;2022-10-17T14:45:18;21.00;75.70
11426;DHT22;5769;47.998;7.788;2022-10-17T14:48:50;21.00;76.00
11426;DHT22;5769;47.998;7.788;2022-10-17T14:51:26;21.00;76.10
11426;DHT22;5769;47.998;7.788;2022-10-17T14:54:15;21.00;76.40
11426;DHT22;5769;47.998;7.788;2022-10-17T14:57:22;21.00;76.50
11426;DHT22;5769;47.998;7.788;2022-10-17T15:00:12;21.00;76.60
11426;DHT22;5769;47.998;7.788;2022-10-17T15:02:57;21.00;76.70
11426;DHT22;5769;47.998;7.788;2022-10-17T15:05:44;21.00;76.80
11426;DHT22;5769;47.998;7.788;2022-10-17T15:08:14;21.00;76.60
11426;DHT22;5769;47.998;7.788;2022-10-17T15:10:42;21.00;76.70
11426;DHT22;5769;47.998;7.788;2022-10-17T15:13:17;21.00;76.40
11426;DHT22;5769;47.998;7.788;2022-10-17T15:15:44;21.00;76.20
11426;DHT22;5769;47.998;7.788;2022-10-17T15:18:18;21.00;76.00
11426;DHT22;5769;47.998;7.788;2022-10-17T15:20:54;20.90;76.10
11426;DHT22;5769;47.998;7.788;2022-10-17T15:23:36;20.90;76.00
11426;DHT22;5769;47.998;7.788;2022-10-17T15:26:10;20.90;76.10
11426;DHT22;5769;47.998;7.788;2022-10-17T15:28:41;20.90;76.10
11426;DHT22;5769;47.998;7.788;2022-10-17T15:31:13;20.90;76.10
11426;DHT22;5769;47.998;7.788;2022-10-17T15:33:42;20.90;76.20
11426;DHT22;5769;47.998;7.788;2022-10-17T15:36:20;20.90;76.10
11426;DHT22;5769;47.998;7.788;2022-10-17T15:38:49;20.80;76.20
11426;DHT22;5769;47.998;7.788;2022-10-17T15:41:16;20.80;76.10
11426;DHT22;5769;47.998;7.788;2022-10-17T15:43:43;20.80;76.10
11426;DHT22;5769;47.998;7.788;2022-10-17T15:46:15;20.80;76.20
11426;DHT22;5769;47.998;7.788;2022-10-17T15:48:42;20.80;76.20
11426;DHT22;5769;47.998;7.788;2022-10-17T15:51:09;20.80;76.30
11426;DHT22;5769;47.998;7.788;2022-10-17T15:53:36;20.80;76.30
11426;DHT22;5769;47.998;7.788;2022-10-17T15:56:05;20.80;76.30
11426;DHT22;5769;47.998;7.788;2022-10-17T15:58:35;20.80;77.00
11426;DHT22;5769;47.998;7.788;2022-10-17T16:01:03;20.80;76.40
11426;DHT22;5769;47.998;7.788;2022-10-17T16:03:30;20.70;76.30
11426;DHT22;5769;47.998;7.788;2022-10-17T16:05:57;20.80;76.40
11426;DHT22;5769;47.998;7.788;2022-10-17T16:08:24;20.80;76.50
11426;DHT22;5769;47.998;7.788;2022-10-17T16:10:51;20.70;76.30
11426;DHT22;5769;47.998;7.788;2022-10-17T16:13:22;20.70;76.30
11426;DHT22;5769;47.998;7.788;2022-10-17T16:15:49;20.70;76.40
11426;DHT22;5769;47.998;7.788;2022-10-17T16:18:16;20.70;76.40
11426;DHT22;5769;47.998;7.788;2022-10-17T16:20:42;20.70;76.40
11426;DHT22;5769;47.998;7.788;2022-10-17T16:23:11;20.70;76.40
11426;DHT22;5769;47.998;7.788;2022-10-17T16:25:38;20.70;76.50
11426;DHT22;5769;47.998;7.788;2022-10-17T16:28:05;20.70;76.50
11426;DHT22;5769;47.998;7.788;2022-10-17T16:30:40;20.70;76.50
11426;DHT22;5769;47.998;7.788;2022-10-17T16:33:09;20.70;76.60
11426;DHT22;5769;47.998;7.788;2022-10-17T16:35:36;20.70;76.60
11426;DHT22;5769;47.998;7.788;2022-10-17T16:38:03;20.70;76.60
11426;DHT22;5769;47.998;7.788;2022-10-17T16:40:30;20.70;76.60
11426;DHT22;5769;47.998;7.788;2022-10-17T16:42:58;20.70;76.60
11426;DHT22;5769;47.998;7.788;2022-10-17T16:45:25;20.70;76.70
11426;DHT22;5769;47.998;7.788;2022-10-17T16:47:54;20.70;76.70
11426;DHT22;5769;47.998;7.788;2022-10-17T16:50:21;20.70;76.70
11426;DHT22;5769;47.998;7.788;2022-10-17T16:52:48;20.70;76.70